sensor_id;sensor_type;location;lat;lon;timestamp;P1;durP1;ratioP1;P2;durP2;ratioP2
8036;SDS011;4061;51.360;7.340;2022-08-05T00:00:07;5.80;;;1.70;;
8036;SDS011;4061;51.360;7.340;2022-08-05T00:02:36;1.38;;;1.27;;
8036;SDS011;4061;51.360;7.340;2022-08-05T00:05:03;3.30;;;1.40;;
8036;SDS011;4061;51.360;7.340;2022-08-05T00:07:32;8.50;;;1.25;;
8036;SDS011;4061;51.360;7.340;2022-08-05T00:09:59;6.15;;;1.50;;
8036;SDS011;4061;51.360;7.340;2022-08-05T00:12:26;3.00;;;1.40;;
8036;SDS011;4061;51.360;7.340;2022-08-05T00:14:53;3.38;;;1.70;;
8036;SDS011;4061;51.360;7.340;2022-08-05T00:17:20;5.03;;;1.67;;
8036;SDS011;4061;51.360;7.340;2022-08-05T00:19:48;3.88;;;1.20;;
8036;SDS011;4061;51.360;7.340;2022-08-05T00:22:15;3.60;;;1.60;;
8036;SDS011;4061;51.360;7.340;2022-08-05T00:24:43;4.53;;;2.25;;
8036;SDS011;4061;51.360;7.340;2022-08-05T00:27:11;2.97;;;1.60;;
8036;SDS011;4061;51.360;7.340;2022-08-05T00:29:38;2.88;;;2.05;;
8036;SDS011;4061;51.360;7.340;2022-08-05T00:32:05;5.53;;;2.08;;
8036;SDS011;4061;51.360;7.340;2022-08-05T00:34:33;2.75;;;2.10;;
8036;SDS011;4061;51.360;7.340;2022-08-05T00:37:00;5.03;;;1.85;;
8036;SDS011;4061;51.360;7.340;2022-08-05T00:39:27;5.55;;;2.20;;
8036;SDS011;4061;51.360;7.340;2022-08-05T00:41:55;5.85;;;2.55;;
8036;SDS011;4061;51.360;7.340;2022-08-05T00:44:23;2.88;;;1.70;;
8036;SDS011;4061;51.360;7.340;2022-08-05T00:46:50;4.13;;;1.63;;
8036;SDS011;4061;51.360;7.340;2022-08-05T00:49:17;3.97;;;1.75;;
8036;SDS011;4061;51.360;7.340;2022-08-05T00:51:44;3.95;;;1.77;;
8036;SDS011;4061;51.360;7.340;2022-08-05T00:54:11;6.80;;;1.92;;
8036;SDS011;4061;51.360;7.340;2022-08-05T00:56:39;4.10;;;2.15;;
8036;SDS011;4061;51.360;7.340;2022-08-05T00:59:08;4.38;;;2.10;;
8036;SDS011;4061;51.360;7.340;2022-08-05T01:01:35;4.40;;;2.05;;
8036;SDS011;4061;51.360;7.340;2022-08-05T01:04:03;6.75;;;2.10;;
8036;SDS011;4061;51.360;7.340;2022-08-05T01:06:30;3.10;;;1.77;;
8036;SDS011;4061;51.360;7.340;2022-08-05T01:08:57;2.63;;;2.33;;
8036;SDS011;4061;51.360;7.340;2022-08-05T01:11:26;6.45;;;2.47;;
8036;SDS011;4061;51.360;7.340;2022-08-05T01:14:01;2.30;;;2.15;;
8036;SDS011;4061;51.360;7.340;2022-08-05T01:16:36;3.28;;;2.13;;
8036;SDS011;4061;51.360;7.340;2022-08-05T01:19:10;5.10;;;1.95;;
8036;SDS011;4061;51.360;7.340;2022-08-05T01:21:49;4.60;;;2.38;;
8036;SDS011;4061;51.360;7.340;2022-08-05T01:24:29;5.03;;;2.40;;
8036;SDS011;4061;51.360;7.340;2022-08-05T01:27:02;5.60;;;2.30;;
8036;SDS011;4061;51.360;7.340;2022-08-05T01:29:40;2.42;;;1.90;;
8036;SDS011;4061;51.360;7.340;2022-08-05T01:32:12;3.92;;;1.85;;
8036;SDS011;4061;51.360;7.340;2022-08-05T01:34:43;1.95;;;1.83;;
8036;SDS011;4061;51.360;7.340;2022-08-05T01:37:13;2.50;;;2.00;;
8036;SDS011;4061;51.360;7.340;2022-08-05T01:39:42;3.90;;;2.20;;
8036;SDS011;4061;51.360;7.340;2022-08-05T01:42:12;2.90;;;2.15;;
8036;SDS011;4061;51.360;7.340;2022-08-05T01:44:41;4.47;;;1.80;;
8036;SDS011;4061;51.360;7.340;2022-08-05T01:47:08;3.33;;;1.90;;
8036;SDS011;4061;51.360;7.340;2022-08-05T01:49:36;2.72;;;1.58;;
8036;SDS011;4061;51.360;7.340;2022-08-05T01:52:05;2.20;;;1.83;;
8036;SDS011;4061;51.360;7.340;2022-08-05T01:54:35;3.92;;;2.72;;
8036;SDS011;4061;51.360;7.340;2022-08-05T01:57:11;5.60;;;2.30;;
8036;SDS011;4061;51.360;7.340;2022-08-05T01:59:40;3.75;;;2.30;;
8036;SDS011;4061;51.360;7.340;2022-08-05T02:02:09;5.47;;;1.80;;
8036;SDS011;4061;51.360;7.340;2022-08-05T02:04:37;3.30;;;2.00;;
8036;SDS011;4061;51.360;7.340;2022-08-05T02:07:06;4.63;;;1.80;;
8036;SDS011;4061;51.360;7.340;2022-08-05T02:09:33;3.85;;;1.38;;
8036;SDS011;4061;51.360;7.340;2022-08-05T02:12:02;3.13;;;1.50;;
8036;SDS011;4061;51.360;7.340;2022-08-05T02:14:32;2.70;;;1.42;;
8036;SDS011;4061;51.360;7.340;2022-08-05T02:17:06;4.50;;;1.42;;
8036;SDS011;4061;51.360;7.340;2022-08-05T02:19:36;5.03;;;1.92;;
8036;SDS011;4061;51.360;7.340;2022-08-05T02:22:12;1.95;;;1.58;;
8036;SDS011;4061;51.360;7.340;2022-08-05T02:24:44;2.90;;;1.42;;
8036;SDS011;4061;51.360;7.340;2022-08-05T02:27:15;3.85;;;1.48;;
8036;SDS011;4061;51.360;7.340;2022-08-05T02:29:43;8.32;;;1.55;;
8036;SDS011;4061;51.360;7.340;2022-08-05T02:32:11;2.45;;;1.83;;
8036;SDS011;4061;51.360;7.340;2022-08-05T02:34:40;3.28;;;1.77;;
8036;SDS011;4061;51.360;7.340;2022-08-05T02:37:07;1.88;;;1.60;;
8036;SDS011;4061;51.360;7.340;2022-08-05T02:39:35;2.42;;;1.75;;
8036;SDS011;4061;51.360;7.340;2022-08-05T02:42:04;2.05;;;1.30;;
8036;SDS011;4061;51.360;7.340;2022-08-05T02:44:33;1.42;;;1.40;;
8036;SDS011;4061;51.360;7.340;2022-08-05T02:47:02;2.55;;;1.65;;
8036;SDS011;4061;51.360;7.340;2022-08-05T02:49:31;5.18;;;1.50;;
8036;SDS011;4061;51.360;7.340;2022-08-05T02:52:02;5.13;;;1.75;;
8036;SDS011;4061;51.360;7.340;2022-08-05T02:54:30;7.15;;;1.65;;
8036;SDS011;4061;51.360;7.340;2022-08-05T02:56:58;1.92;;;1.75;;
8036;SDS011;4061;51.360;7.340;2022-08-05T02:59:25;2.50;;;1.95;;
8036;SDS011;4061;51.360;7.340;2022-08-05T03:01:54;4.05;;;1.60;;
8036;SDS011;4061;51.360;7.340;2022-08-05T03:04:24;2.47;;;1.75;;
8036;SDS011;4061;51.360;7.340;2022-08-05T03:06:51;2.50;;;1.33;;
8036;SDS011;4061;51.360;7.340;2022-08-05T03:09:20;2.75;;;1.80;;
8036;SDS011;4061;51.360;7.340;2022-08-05T03:11:48;4.32;;;2.03;;
8036;SDS011;4061;51.360;7.340;2022-08-05T03:14:15;5.05;;;1.90;;
8036;SDS011;4061;51.360;7.340;2022-08-05T03:16:43;3.67;;;2.15;;
8036;SDS011;4061;51.360;7.340;2022-08-05T03:19:10;10.45;;;3.03;;
8036;SDS011;4061;51.360;7.340;2022-08-05T03:21:37;5.45;;;2.05;;
8036;SDS011;4061;51.360;7.340;2022-08-05T03:24:04;1.85;;;1.70;;
8036;SDS011;4061;51.360;7.340;2022-08-05T03:26:34;6.80;;;1.98;;
8036;SDS011;4061;51.360;7.340;2022-08-05T03:29:01;3.95;;;1.83;;
8036;SDS011;4061;51.360;7.340;2022-08-05T03:31:29;8.88;;;2.50;;
8036;SDS011;4061;51.360;7.340;2022-08-05T03:33:56;3.13;;;2.28;;
8036;SDS011;4061;51.360;7.340;2022-08-05T03:36:24;2.97;;;2.70;;
8036;SDS011;4061;51.360;7.340;2022-08-05T03:38:51;5.32;;;1.92;;
8036;SDS011;4061;51.360;7.340;2022-08-05T03:41:18;3.85;;;2.35;;
8036;SDS011;4061;51.360;7.340;2022-08-05T03:43:47;5.93;;;2.17;;
8036;SDS011;4061;51.360;7.340;2022-08-05T03:46:14;4.43;;;2.50;;
8036;SDS011;4061;51.360;7.340;2022-08-05T03:48:41;2.40;;;2.20;;
8036;SDS011;4061;51.360;7.340;2022-08-05T03:51:10;8.10;;;2.63;;
8036;SDS011;4061;51.360;7.340;2022-08-05T03:53:38;8.77;;;2.85;;
8036;SDS011;4061;51.360;7.340;2022-08-05T03:56:12;4.72;;;2.63;;
8036;SDS011;4061;51.360;7.340;2022-08-05T03:58:41;2.63;;;2.28;;
8036;SDS011;4061;51.360;7.340;2022-08-05T04:01:12;7.38;;;2.83;;
8036;SDS011;4061;51.360;7.340;2022-08-05T04:03:41;3.22;;;2.97;;
8036;SDS011;4061;51.360;7.340;2022-08-05T04:06:10;8.80;;;3.95;;
8036;SDS011;4061;51.360;7.340;2022-08-05T04:08:38;4.25;;;3.03;;
8036;SDS011;4061;51.360;7.340;2022-08-05T04:11:06;5.85;;;3.45;;
8036;SDS011;4061;51.360;7.340;2022-08-05T04:13:33;8.02;;;4.70;;
8036;SDS011;4061;51.360;7.340;2022-08-05T04:16:00;4.63;;;3.83;;
8036;SDS011;4061;51.360;7.340;2022-08-05T04:18:29;4.82;;;3.55;;
8036;SDS011;4061;51.360;7.340;2022-08-05T04:20:56;8.45;;;4.05;;
8036;SDS011;4061;51.360;7.340;2022-08-05T04:23:24;7.88;;;3.90;;
8036;SDS011;4061;51.360;7.340;2022-08-05T04:25:52;6.30;;;3.33;;
8036;SDS011;4061;51.360;7.340;2022-08-05T04:28:19;4.03;;;2.88;;
8036;SDS011;4061;51.360;7.340;2022-08-05T04:30:47;5.53;;;3.30;;
8036;SDS011;4061;51.360;7.340;2022-08-05T04:33:14;7.00;;;3.50;;
8036;SDS011;4061;51.360;7.340;2022-08-05T04:35:43;5.32;;;3.50;;
8036;SDS011;4061;51.360;7.340;2022-08-05T04:38:10;7.78;;;3.80;;
8036;SDS011;4061;51.360;7.340;2022-08-05T04:40:38;4.43;;;3.40;;
8036;SDS011;4061;51.360;7.340;2022-08-05T04:43:05;5.93;;;3.78;;
8036;SDS011;4061;51.360;7.340;2022-08-05T04:45:33;8.20;;;3.85;;
8036;SDS011;4061;51.360;7.340;2022-08-05T04:48:03;7.32;;;4.05;;
8036;SDS011;4061;51.360;7.340;2022-08-05T04:50:36;5.35;;;3.55;;
8036;SDS011;4061;51.360;7.340;2022-08-05T04:53:05;10.55;;;3.42;;
8036;SDS011;4061;51.360;7.340;2022-08-05T04:55:33;6.38;;;4.07;;
8036;SDS011;4061;51.360;7.340;2022-08-05T04:58:00;7.22;;;3.42;;
8036;SDS011;4061;51.360;7.340;2022-08-05T05:00:27;4.85;;;3.58;;
8036;SDS011;4061;51.360;7.340;2022-08-05T05:02:54;7.72;;;3.85;;
8036;SDS011;4061;51.360;7.340;2022-08-05T05:05:21;4.38;;;3.58;;
8036;SDS011;4061;51.360;7.340;2022-08-05T05:07:48;8.45;;;3.47;;
8036;SDS011;4061;51.360;7.340;2022-08-05T05:10:17;6.20;;;4.15;;
8036;SDS011;4061;51.360;7.340;2022-08-05T05:12:44;9.40;;;3.88;;
8036;SDS011;4061;51.360;7.340;2022-08-05T05:15:11;12.55;;;5.25;;
8036;SDS011;4061;51.360;7.340;2022-08-05T05:17:39;5.32;;;3.50;;
8036;SDS011;4061;51.360;7.340;2022-08-05T05:20:07;7.47;;;3.83;;
8036;SDS011;4061;51.360;7.340;2022-08-05T05:22:35;4.68;;;3.38;;
8036;SDS011;4061;51.360;7.340;2022-08-05T05:25:02;7.22;;;4.30;;
8036;SDS011;4061;51.360;7.340;2022-08-05T05:27:32;6.00;;;3.80;;
8036;SDS011;4061;51.360;7.340;2022-08-05T05:30:00;8.93;;;4.43;;
8036;SDS011;4061;51.360;7.340;2022-08-05T05:32:27;6.95;;;4.47;;
8036;SDS011;4061;51.360;7.340;2022-08-05T05:34:54;8.95;;;3.92;;
8036;SDS011;4061;51.360;7.340;2022-08-05T05:37:22;8.90;;;4.65;;
8036;SDS011;4061;51.360;7.340;2022-08-05T05:39:49;7.55;;;4.82;;
8036;SDS011;4061;51.360;7.340;2022-08-05T05:42:16;7.03;;;5.03;;
8036;SDS011;4061;51.360;7.340;2022-08-05T05:44:45;8.88;;;5.68;;
8036;SDS011;4061;51.360;7.340;2022-08-05T05:47:12;9.18;;;5.25;;
8036;SDS011;4061;51.360;7.340;2022-08-05T05:49:39;16.45;;;5.68;;
8036;SDS011;4061;51.360;7.340;2022-08-05T05:52:06;9.02;;;5.63;;
8036;SDS011;4061;51.360;7.340;2022-08-05T05:54:33;6.78;;;5.18;;
8036;SDS011;4061;51.360;7.340;2022-08-05T05:57:00;9.32;;;6.20;;
8036;SDS011;4061;51.360;7.340;2022-08-05T05:59:27;12.57;;;7.22;;
8036;SDS011;4061;51.360;7.340;2022-08-05T06:01:56;12.73;;;7.30;;
8036;SDS011;4061;51.360;7.340;2022-08-05T06:04:23;13.73;;;7.93;;
8036;SDS011;4061;51.360;7.340;2022-08-05T06:06:50;13.18;;;7.95;;
8036;SDS011;4061;51.360;7.340;2022-08-05T06:09:17;14.13;;;8.15;;
8036;SDS011;4061;51.360;7.340;2022-08-05T06:11:44;16.95;;;8.82;;
8036;SDS011;4061;51.360;7.340;2022-08-05T06:14:11;12.75;;;8.43;;
8036;SDS011;4061;51.360;7.340;2022-08-05T06:16:39;14.48;;;9.85;;
8036;SDS011;4061;51.360;7.340;2022-08-05T06:19:07;20.45;;;11.05;;
8036;SDS011;4061;51.360;7.340;2022-08-05T06:21:35;18.63;;;10.00;;
8036;SDS011;4061;51.360;7.340;2022-08-05T06:24:02;20.17;;;10.00;;
8036;SDS011;4061;51.360;7.340;2022-08-05T06:26:29;18.63;;;10.65;;
8036;SDS011;4061;51.360;7.340;2022-08-05T06:28:57;16.25;;;9.88;;
8036;SDS011;4061;51.360;7.340;2022-08-05T06:31:24;21.60;;;11.85;;
8036;SDS011;4061;51.360;7.340;2022-08-05T06:33:51;23.02;;;11.90;;
8036;SDS011;4061;51.360;7.340;2022-08-05T06:36:19;21.00;;;12.60;;
8036;SDS011;4061;51.360;7.340;2022-08-05T06:38:47;25.33;;;13.15;;
8036;SDS011;4061;51.360;7.340;2022-08-05T06:41:17;34.92;;;13.13;;
8036;SDS011;4061;51.360;7.340;2022-08-05T06:43:44;22.83;;;12.25;;
8036;SDS011;4061;51.360;7.340;2022-08-05T06:46:12;26.42;;;12.63;;
8036;SDS011;4061;51.360;7.340;2022-08-05T06:48:39;27.58;;;14.20;;
8036;SDS011;4061;51.360;7.340;2022-08-05T06:51:06;22.27;;;12.52;;
8036;SDS011;4061;51.360;7.340;2022-08-05T06:53:35;25.83;;;12.77;;
8036;SDS011;4061;51.360;7.340;2022-08-05T06:56:02;31.88;;;15.48;;
8036;SDS011;4061;51.360;7.340;2022-08-05T06:58:29;30.83;;;14.55;;
8036;SDS011;4061;51.360;7.340;2022-08-05T07:00:57;34.22;;;14.38;;
8036;SDS011;4061;51.360;7.340;2022-08-05T07:03:24;31.77;;;14.73;;
8036;SDS011;4061;51.360;7.340;2022-08-05T07:05:51;32.45;;;15.38;;
8036;SDS011;4061;51.360;7.340;2022-08-05T07:08:18;27.83;;;14.38;;
8036;SDS011;4061;51.360;7.340;2022-08-05T07:10:47;31.90;;;14.23;;
8036;SDS011;4061;51.360;7.340;2022-08-05T07:13:14;29.27;;;13.57;;
8036;SDS011;4061;51.360;7.340;2022-08-05T07:16:00;34.42;;;14.38;;
8036;SDS011;4061;51.360;7.340;2022-08-05T07:18:44;33.97;;;13.93;;
8036;SDS011;4061;51.360;7.340;2022-08-05T07:21:11;41.53;;;13.98;;
8036;SDS011;4061;51.360;7.340;2022-08-05T07:23:38;29.10;;;13.80;;
8036;SDS011;4061;51.360;7.340;2022-08-05T07:26:07;22.60;;;10.18;;
8036;SDS011;4061;51.360;7.340;2022-08-05T07:28:34;11.77;;;7.22;;
8036;SDS011;4061;51.360;7.340;2022-08-05T07:31:01;14.82;;;8.07;;
8036;SDS011;4061;51.360;7.340;2022-08-05T07:33:28;10.80;;;6.38;;
8036;SDS011;4061;51.360;7.340;2022-08-05T07:35:55;9.98;;;6.10;;
8036;SDS011;4061;51.360;7.340;2022-08-05T07:38:23;11.48;;;6.75;;
8036;SDS011;4061;51.360;7.340;2022-08-05T07:40:50;11.75;;;7.15;;
8036;SDS011;4061;51.360;7.340;2022-08-05T07:43:18;14.57;;;6.47;;
8036;SDS011;4061;51.360;7.340;2022-08-05T07:45:45;9.93;;;7.03;;
8036;SDS011;4061;51.360;7.340;2022-08-05T07:48:13;20.33;;;6.22;;
8036;SDS011;4061;51.360;7.340;2022-08-05T07:50:40;10.13;;;6.97;;
8036;SDS011;4061;51.360;7.340;2022-08-05T07:53:07;14.52;;;7.72;;
8036;SDS011;4061;51.360;7.340;2022-08-05T07:55:34;15.85;;;7.70;;
8036;SDS011;4061;51.360;7.340;2022-08-05T07:58:01;14.63;;;8.70;;
8036;SDS011;4061;51.360;7.340;2022-08-05T08:00:30;13.23;;;8.30;;
8036;SDS011;4061;51.360;7.340;2022-08-05T08:02:57;13.13;;;7.88;;
8036;SDS011;4061;51.360;7.340;2022-08-05T08:05:24;11.13;;;8.05;;
8036;SDS011;4061;51.360;7.340;2022-08-05T08:07:51;21.98;;;9.55;;
8036;SDS011;4061;51.360;7.340;2022-08-05T08:10:19;20.88;;;10.15;;
8036;SDS011;4061;51.360;7.340;2022-08-05T08:12:46;16.10;;;8.93;;
8036;SDS011;4061;51.360;7.340;2022-08-05T08:15:14;14.85;;;8.82;;
8036;SDS011;4061;51.360;7.340;2022-08-05T08:17:42;13.07;;;8.48;;
8036;SDS011;4061;51.360;7.340;2022-08-05T08:20:10;12.30;;;8.95;;
8036;SDS011;4061;51.360;7.340;2022-08-05T08:22:37;10.48;;;7.95;;
8036;SDS011;4061;51.360;7.340;2022-08-05T08:25:05;14.10;;;8.40;;
8036;SDS011;4061;51.360;7.340;2022-08-05T08:27:32;14.55;;;9.48;;
8036;SDS011;4061;51.360;7.340;2022-08-05T08:29:59;13.45;;;9.23;;
8036;SDS011;4061;51.360;7.340;2022-08-05T08:32:26;11.32;;;7.53;;
8036;SDS011;4061;51.360;7.340;2022-08-05T08:34:55;13.45;;;7.35;;
8036;SDS011;4061;51.360;7.340;2022-08-05T08:37:22;9.65;;;6.72;;
8036;SDS011;4061;51.360;7.340;2022-08-05T08:39:49;13.25;;;7.57;;
8036;SDS011;4061;51.360;7.340;2022-08-05T08:42:16;9.90;;;7.03;;
8036;SDS011;4061;51.360;7.340;2022-08-05T08:44:44;12.73;;;7.40;;
8036;SDS011;4061;51.360;7.340;2022-08-05T08:47:11;10.95;;;6.68;;
8036;SDS011;4061;51.360;7.340;2022-08-05T08:49:39;13.65;;;6.63;;
8036;SDS011;4061;51.360;7.340;2022-08-05T08:52:12;10.32;;;5.78;;
8036;SDS011;4061;51.360;7.340;2022-08-05T08:54:39;13.05;;;5.90;;
8036;SDS011;4061;51.360;7.340;2022-08-05T08:57:08;12.07;;;6.18;;
8036;SDS011;4061;51.360;7.340;2022-08-05T08:59:36;9.18;;;5.55;;
8036;SDS011;4061;51.360;7.340;2022-08-05T09:02:04;8.35;;;5.07;;
8036;SDS011;4061;51.360;7.340;2022-08-05T09:04:32;10.82;;;5.97;;
8036;SDS011;4061;51.360;7.340;2022-08-05T09:07:02;8.25;;;6.00;;
8036;SDS011;4061;51.360;7.340;2022-08-05T09:09:30;10.63;;;6.07;;
8036;SDS011;4061;51.360;7.340;2022-08-05T09:11:58;11.35;;;6.05;;
8036;SDS011;4061;51.360;7.340;2022-08-05T09:14:25;7.32;;;4.65;;
8036;SDS011;4061;51.360;7.340;2022-08-05T09:16:52;10.68;;;5.40;;
8036;SDS011;4061;51.360;7.340;2022-08-05T09:19:19;6.22;;;4.78;;
8036;SDS011;4061;51.360;7.340;2022-08-05T09:21:47;7.50;;;4.78;;
8036;SDS011;4061;51.360;7.340;2022-08-05T09:24:14;10.77;;;3.70;;
8036;SDS011;4061;51.360;7.340;2022-08-05T09:26:45;4.25;;;3.67;;
8036;SDS011;4061;51.360;7.340;2022-08-05T09:29:12;4.93;;;3.38;;
8036;SDS011;4061;51.360;7.340;2022-08-05T09:31:39;8.55;;;3.83;;
8036;SDS011;4061;51.360;7.340;2022-08-05T09:34:08;7.65;;;3.17;;
8036;SDS011;4061;51.360;7.340;2022-08-05T09:36:39;3.40;;;2.65;;
8036;SDS011;4061;51.360;7.340;2022-08-05T09:39:08;3.30;;;2.05;;
8036;SDS011;4061;51.360;7.340;2022-08-05T09:41:41;8.82;;;2.20;;
8036;SDS011;4061;51.360;7.340;2022-08-05T09:44:32;4.07;;;2.50;;
8036;SDS011;4061;51.360;7.340;2022-08-05T09:47:06;7.72;;;2.38;;
8036;SDS011;4061;51.360;7.340;2022-08-05T09:49:34;8.65;;;2.92;;
8036;SDS011;4061;51.360;7.340;2022-08-05T09:52:19;3.10;;;2.67;;
8036;SDS011;4061;51.360;7.340;2022-08-05T09:54:56;3.40;;;2.03;;
8036;SDS011;4061;51.360;7.340;2022-08-05T09:57:30;6.40;;;3.00;;
8036;SDS011;4061;51.360;7.340;2022-08-05T10:00:00;4.85;;;2.42;;
8036;SDS011;4061;51.360;7.340;2022-08-05T10:02:31;4.60;;;2.85;;
8036;SDS011;4061;51.360;7.340;2022-08-05T10:05:03;5.13;;;2.78;;
8036;SDS011;4061;51.360;7.340;2022-08-05T10:10:14;7.18;;;3.03;;
8036;SDS011;4061;51.360;7.340;2022-08-05T10:12:42;6.07;;;2.83;;
8036;SDS011;4061;51.360;7.340;2022-08-05T10:15:14;4.78;;;2.53;;
8036;SDS011;4061;51.360;7.340;2022-08-05T10:17:42;10.05;;;3.00;;
8036;SDS011;4061;51.360;7.340;2022-08-05T10:20:09;4.25;;;2.58;;
8036;SDS011;4061;51.360;7.340;2022-08-05T10:22:38;3.08;;;2.58;;
8036;SDS011;4061;51.360;7.340;2022-08-05T10:25:06;2.90;;;2.70;;
8036;SDS011;4061;51.360;7.340;2022-08-05T10:27:33;7.70;;;2.80;;
8036;SDS011;4061;51.360;7.340;2022-08-05T10:30:01;2.88;;;2.42;;
8036;SDS011;4061;51.360;7.340;2022-08-05T10:32:31;2.88;;;2.55;;
8036;SDS011;4061;51.360;7.340;2022-08-05T10:34:58;3.25;;;2.60;;
8036;SDS011;4061;51.360;7.340;2022-08-05T10:37:26;3.30;;;2.45;;
8036;SDS011;4061;51.360;7.340;2022-08-05T10:39:54;3.95;;;2.70;;
8036;SDS011;4061;51.360;7.340;2022-08-05T10:42:22;4.90;;;2.95;;
8036;SDS011;4061;51.360;7.340;2022-08-05T10:44:50;8.57;;;3.03;;
8036;SDS011;4061;51.360;7.340;2022-08-05T10:47:20;5.18;;;2.65;;
8036;SDS011;4061;51.360;7.340;2022-08-05T10:50:01;4.82;;;3.30;;
8036;SDS011;4061;51.360;7.340;2022-08-05T10:52:38;7.50;;;3.00;;
8036;SDS011;4061;51.360;7.340;2022-08-05T10:55:06;4.88;;;2.50;;
8036;SDS011;4061;51.360;7.340;2022-08-05T10:57:35;7.97;;;3.40;;
8036;SDS011;4061;51.360;7.340;2022-08-05T11:00:05;6.85;;;2.92;;
8036;SDS011;4061;51.360;7.340;2022-08-05T11:02:33;4.28;;;2.28;;
8036;SDS011;4061;51.360;7.340;2022-08-05T11:05:03;7.15;;;2.90;;
8036;SDS011;4061;51.360;7.340;2022-08-05T11:07:30;6.35;;;2.95;;
8036;SDS011;4061;51.360;7.340;2022-08-05T11:09:59;8.02;;;2.75;;
8036;SDS011;4061;51.360;7.340;2022-08-05T11:12:43;5.63;;;3.30;;
8036;SDS011;4061;51.360;7.340;2022-08-05T11:15:21;3.13;;;2.83;;
8036;SDS011;4061;51.360;7.340;2022-08-05T11:17:48;4.70;;;2.80;;
8036;SDS011;4061;51.360;7.340;2022-08-05T11:20:37;7.00;;;2.67;;
8036;SDS011;4061;51.360;7.340;2022-08-05T11:25:59;7.60;;;2.55;;
8036;SDS011;4061;51.360;7.340;2022-08-05T11:28:40;4.80;;;2.35;;
8036;SDS011;4061;51.360;7.340;2022-08-05T11:31:21;5.43;;;2.85;;
8036;SDS011;4061;51.360;7.340;2022-08-05T11:33:52;8.40;;;2.55;;
8036;SDS011;4061;51.360;7.340;2022-08-05T11:39:05;5.05;;;2.25;;
8036;SDS011;4061;51.360;7.340;2022-08-05T11:41:33;6.15;;;2.72;;
8036;SDS011;4061;51.360;7.340;2022-08-05T11:44:01;4.63;;;2.17;;
8036;SDS011;4061;51.360;7.340;2022-08-05T11:46:31;3.53;;;2.10;;
8036;SDS011;4061;51.360;7.340;2022-08-05T11:48:58;3.95;;;2.20;;
8036;SDS011;4061;51.360;7.340;2022-08-05T11:51:26;2.30;;;2.13;;
8036;SDS011;4061;51.360;7.340;2022-08-05T11:53:54;3.22;;;2.17;;
8036;SDS011;4061;51.360;7.340;2022-08-05T11:56:23;4.57;;;1.92;;
8036;SDS011;4061;51.360;7.340;2022-08-05T11:58:50;4.15;;;2.00;;
8036;SDS011;4061;51.360;7.340;2022-08-05T12:01:18;2.20;;;2.10;;
8036;SDS011;4061;51.360;7.340;2022-08-05T12:03:46;2.15;;;1.60;;
8036;SDS011;4061;51.360;7.340;2022-08-05T12:06:15;5.70;;;1.77;;
8036;SDS011;4061;51.360;7.340;2022-08-05T12:08:44;3.70;;;1.70;;
8036;SDS011;4061;51.360;7.340;2022-08-05T12:11:15;4.18;;;1.95;;
8036;SDS011;4061;51.360;7.340;2022-08-05T12:13:52;1.55;;;1.38;;
8036;SDS011;4061;51.360;7.340;2022-08-05T12:16:20;7.95;;;1.63;;
8036;SDS011;4061;51.360;7.340;2022-08-05T12:18:48;3.88;;;1.85;;
8036;SDS011;4061;51.360;7.340;2022-08-05T12:21:16;3.53;;;1.63;;
8036;SDS011;4061;51.360;7.340;2022-08-05T12:23:51;4.32;;;1.65;;
8036;SDS011;4061;51.360;7.340;2022-08-05T12:26:18;7.10;;;1.83;;
8036;SDS011;4061;51.360;7.340;2022-08-05T12:28:46;2.78;;;1.40;;
8036;SDS011;4061;51.360;7.340;2022-08-05T12:31:14;6.00;;;1.85;;
8036;SDS011;4061;51.360;7.340;2022-08-05T12:33:42;1.52;;;1.35;;
8036;SDS011;4061;51.360;7.340;2022-08-05T12:36:09;2.45;;;1.02;;
8036;SDS011;4061;51.360;7.340;2022-08-05T12:38:37;1.95;;;1.77;;
8036;SDS011;4061;51.360;7.340;2022-08-05T12:41:06;3.88;;;1.83;;
8036;SDS011;4061;51.360;7.340;2022-08-05T12:43:33;1.30;;;1.20;;
8036;SDS011;4061;51.360;7.340;2022-08-05T12:46:00;1.20;;;1.20;;
8036;SDS011;4061;51.360;7.340;2022-08-05T12:48:36;1.35;;;1.17;;
8036;SDS011;4061;51.360;7.340;2022-08-05T12:51:10;3.33;;;1.65;;
8036;SDS011;4061;51.360;7.340;2022-08-05T12:53:41;4.88;;;1.60;;
8036;SDS011;4061;51.360;7.340;2022-08-05T12:56:18;1.50;;;1.30;;
8036;SDS011;4061;51.360;7.340;2022-08-05T13:01:29;3.70;;;1.83;;
8036;SDS011;4061;51.360;7.340;2022-08-05T13:03:57;5.22;;;2.08;;
8036;SDS011;4061;51.360;7.340;2022-08-05T13:06:25;1.50;;;1.40;;
8036;SDS011;4061;51.360;7.340;2022-08-05T13:08:53;1.88;;;1.25;;
8036;SDS011;4061;51.360;7.340;2022-08-05T13:11:20;2.97;;;1.38;;
8036;SDS011;4061;51.360;7.340;2022-08-05T13:13:48;1.70;;;1.58;;
8036;SDS011;4061;51.360;7.340;2022-08-05T13:16:15;2.22;;;1.50;;
8036;SDS011;4061;51.360;7.340;2022-08-05T13:18:49;2.65;;;1.50;;
8036;SDS011;4061;51.360;7.340;2022-08-05T13:21:17;1.92;;;1.10;;
8036;SDS011;4061;51.360;7.340;2022-08-05T13:23:45;5.38;;;1.45;;
8036;SDS011;4061;51.360;7.340;2022-08-05T13:26:12;6.20;;;1.90;;
8036;SDS011;4061;51.360;7.340;2022-08-05T13:28:39;3.92;;;1.38;;
8036;SDS011;4061;51.360;7.340;2022-08-05T13:31:06;1.20;;;1.08;;
8036;SDS011;4061;51.360;7.340;2022-08-05T13:33:33;1.42;;;1.25;;
8036;SDS011;4061;51.360;7.340;2022-08-05T13:36:00;2.95;;;1.50;;
8036;SDS011;4061;51.360;7.340;2022-08-05T13:38:29;2.40;;;1.13;;
8036;SDS011;4061;51.360;7.340;2022-08-05T13:40:56;2.60;;;1.15;;
8036;SDS011;4061;51.360;7.340;2022-08-05T13:43:23;1.52;;;0.88;;
8036;SDS011;4061;51.360;7.340;2022-08-05T13:45:50;2.92;;;1.50;;
8036;SDS011;4061;51.360;7.340;2022-08-05T13:48:17;1.35;;;1.33;;
8036;SDS011;4061;51.360;7.340;2022-08-05T13:50:45;2.15;;;1.95;;
8036;SDS011;4061;51.360;7.340;2022-08-05T13:53:12;1.77;;;1.42;;
8036;SDS011;4061;51.360;7.340;2022-08-05T13:55:40;3.63;;;1.48;;
8036;SDS011;4061;51.360;7.340;2022-08-05T13:58:07;5.25;;;2.42;;
8036;SDS011;4061;51.360;7.340;2022-08-05T14:00:34;2.45;;;1.48;;
8036;SDS011;4061;51.360;7.340;2022-08-05T14:03:02;1.38;;;1.27;;
8036;SDS011;4061;51.360;7.340;2022-08-05T14:05:29;3.92;;;1.88;;
8036;SDS011;4061;51.360;7.340;2022-08-05T14:07:55;2.78;;;2.22;;
8036;SDS011;4061;51.360;7.340;2022-08-05T14:10:22;3.55;;;1.95;;
8036;SDS011;4061;51.360;7.340;2022-08-05T14:12:51;1.88;;;1.50;;
8036;SDS011;4061;51.360;7.340;2022-08-05T14:15:19;2.33;;;1.60;;
8036;SDS011;4061;51.360;7.340;2022-08-05T14:17:46;2.60;;;1.80;;
8036;SDS011;4061;51.360;7.340;2022-08-05T14:20:13;1.70;;;1.60;;
8036;SDS011;4061;51.360;7.340;2022-08-05T14:22:40;1.80;;;1.73;;
8036;SDS011;4061;51.360;7.340;2022-08-05T14:25:08;2.28;;;1.95;;
8036;SDS011;4061;51.360;7.340;2022-08-05T14:27:35;2.10;;;1.80;;
8036;SDS011;4061;51.360;7.340;2022-08-05T14:30:04;3.38;;;2.05;;
8036;SDS011;4061;51.360;7.340;2022-08-05T14:32:31;3.47;;;1.98;;
8036;SDS011;4061;51.360;7.340;2022-08-05T14:34:58;4.57;;;1.60;;
8036;SDS011;4061;51.360;7.340;2022-08-05T14:37:26;1.98;;;1.75;;
8036;SDS011;4061;51.360;7.340;2022-08-05T14:39:53;7.10;;;2.30;;
8036;SDS011;4061;51.360;7.340;2022-08-05T14:42:20;1.33;;;1.20;;
8036;SDS011;4061;51.360;7.340;2022-08-05T14:44:47;1.13;;;1.00;;
8036;SDS011;4061;51.360;7.340;2022-08-05T14:47:16;3.28;;;0.80;;
8036;SDS011;4061;51.360;7.340;2022-08-05T14:49:43;1.20;;;1.10;;
8036;SDS011;4061;51.360;7.340;2022-08-05T14:52:10;1.88;;;0.80;;
8036;SDS011;4061;51.360;7.340;2022-08-05T14:54:37;2.47;;;0.80;;
8036;SDS011;4061;51.360;7.340;2022-08-05T14:57:05;1.08;;;1.00;;
8036;SDS011;4061;51.360;7.340;2022-08-05T14:59:32;1.40;;;0.90;;
8036;SDS011;4061;51.360;7.340;2022-08-05T15:01:59;1.75;;;0.60;;
8036;SDS011;4061;51.360;7.340;2022-08-05T15:04:28;1.08;;;0.80;;
8036;SDS011;4061;51.360;7.340;2022-08-05T15:06:55;2.42;;;0.82;;
8036;SDS011;4061;51.360;7.340;2022-08-05T15:09:22;1.88;;;0.77;;
8036;SDS011;4061;51.360;7.340;2022-08-05T15:11:49;2.75;;;0.63;;
8036;SDS011;4061;51.360;7.340;2022-08-05T15:14:17;2.35;;;0.50;;
8036;SDS011;4061;51.360;7.340;2022-08-05T15:16:44;1.40;;;0.52;;
8036;SDS011;4061;51.360;7.340;2022-08-05T15:19:11;4.28;;;0.50;;
8036;SDS011;4061;51.360;7.340;2022-08-05T15:21:39;0.90;;;0.80;;
8036;SDS011;4061;51.360;7.340;2022-08-05T15:24:07;0.77;;;0.60;;
8036;SDS011;4061;51.360;7.340;2022-08-05T15:26:34;1.13;;;0.60;;
8036;SDS011;4061;51.360;7.340;2022-08-05T15:29:01;3.53;;;0.55;;
8036;SDS011;4061;51.360;7.340;2022-08-05T15:31:28;4.63;;;0.43;;